Time;durP1;ratioP1;P1;durP2;ratioP2;P2;SDS_P1;SDS_P2;PMS_P1;PMS_P2;Temp;Humidity;BMP_temperature;BMP_pressure;BME280_temperature;BME280_humidity;BME280_pressure;Samples;Min_cycle;Max_cycle;Signal;HPM_P1;HPM_P2
2023/06/23 00:00:09;;;;;;;7.50;6.60;;;;;;;22.16;54.50;100304.75;105725;1257;59544;-81
2023/06/23 00:02:40;;;;;;;9.70;6.70;;;;;;;22.15;54.48;100300.65;105901;1253;59658;-81
2023/06/23 00:05:11;;;;;;;10.50;6.60;;;;;;;22.15;54.43;100298.41;105760;1257;64265;-82
2023/06/23 00:07:39;;;;;;;9.20;6.60;;;;;;;22.12;54.44;100300.11;105800;1257;59644;-80
2023/06/23 00:10:06;;;;;;;9.10;6.30;;;;;;;22.12;54.41;100299.31;105894;1257;63891;-81
2023/06/23 00:12:34;;;;;;;7.80;6.70;;;;;;;22.07;54.47;100294.02;105725;1253;60893;-82
2023/06/23 00:15:02;;;;;;;11.20;6.60;;;;;;;22.03;54.52;100289.97;105750;1253;60535;-80
2023/06/23 00:17:30;;;;;;;6.80;6.10;;;;;;;21.99;54.52;100292.66;105799;1258;65974;-80
2023/06/23 00:19:57;;;;;;;8.80;7.00;;;;;;;21.98;54.47;100288.23;105802;1253;60315;-80
2023/06/23 00:22:25;;;;;;;7.60;6.30;;;;;;;21.97;54.50;100287.20;105669;1254;64100;-79
2023/06/23 00:24:51;;;;;;;9.90;6.60;;;;;;;21.96;54.60;100286.82;105737;1253;60423;-79
2023/06/23 00:27:19;;;;;;;9.60;7.10;;;;;;;21.91;54.68;100286.55;105786;1253;60420;-79
2023/06/23 00:29:46;;;;;;;9.60;6.90;;;;;;;21.88;54.85;100279.44;105854;1255;65132;-82
2023/06/23 00:32:12;;;;;;;9.60;7.70;;;;;;;21.85;54.97;100281.09;105817;1253;60467;-80
2023/06/23 00:34:40;;;;;;;10.50;8.20;;;;;;;21.82;55.04;100282.80;105752;1257;63159;-80
2023/06/23 00:37:06;;;;;;;9.20;7.90;;;;;;;21.77;55.03;100283.52;105788;1254;60760;-80
2023/06/23 00:39:33;;;;;;;9.50;7.70;;;;;;;21.72;55.29;100281.50;105846;1252;60605;-78
2023/06/23 00:42:03;;;;;;;9.80;7.40;;;;;;;21.72;55.27;100283.81;105830;1253;65313;-80
2023/06/23 00:44:33;;;;;;;8.20;7.40;;;;;;;21.66;55.44;100282.73;105939;1259;60509;-81
2023/06/23 00:47:03;;;;;;;11.60;7.80;;;;;;;21.66;55.38;100280.17;105927;1255;63853;-81
2023/06/23 00:49:30;;;;;;;13.50;7.90;;;;;;;21.61;55.53;100280.08;105800;1254;60517;-80
2023/06/23 00:52:07;;;;;;;8.40;7.60;;;;;;;21.57;55.53;100281.80;105757;1253;60538;-80
2023/06/23 00:54:35;;;;;;;9.50;7.40;;;;;;;21.53;55.68;100278.96;105772;1257;65213;-78
2023/06/23 00:57:03;;;;;;;8.70;7.40;;;;;;;21.51;55.74;100275.60;105808;1253;60500;-80
2023/06/23 00:59:30;;;;;;;8.40;7.60;;;;;;;21.47;55.73;100272.92;105771;1253;63996;-80
2023/06/23 01:01:59;;;;;;;9.90;7.30;;;;;;;21.48;55.75;100270.41;105865;1253;60326;-79
2023/06/23 01:04:27;;;;;;;11.70;7.20;;;;;;;21.44;55.78;100262.89;105833;1254;60438;-79
2023/06/23 01:06:59;;;;;;;12.80;7.60;;;;;;;21.41;55.92;100261.45;105787;1257;65235;-81
2023/06/23 01:09:52;;;;;;;9.30;6.00;;;;;;;21.40;56.03;100262.15;105794;1253;60564;-80
2023/06/23 01:12:31;;;;;;;10.40;7.50;;;;;;;21.36;56.01;100261.89;105642;1257;62737;-81
2023/06/23 01:15:05;;;;;;;12.50;7.50;;;;;;;21.34;56.07;100262.95;105733;1254;61160;-79
2023/06/23 01:17:35;;;;;;;9.70;7.20;;;;;;;21.32;56.24;100259.19;105746;1253;60473;-80
2023/06/23 01:20:22;;;;;;;9.80;7.20;;;;;;;21.30;56.31;100255.29;105934;1253;65332;-81
2023/06/23 01:23:07;;;;;;;12.10;7.00;;;;;;;21.31;56.29;100252.54;105809;1253;60584;-79
2023/06/23 01:25:53;;;;;;;9.60;7.20;;;;;;;21.28;56.49;100253.87;105772;1257;64162;-80
2023/06/23 01:28:55;;;;;;;8.90;7.20;;;;;;;21.27;56.50;100260.77;105867;1254;60463;-79
2023/06/23 01:31:31;;;;;;;9.60;7.20;;;;;;;21.23;56.67;100264.50;105980;1252;60541;-78
2023/06/23 01:34:00;;;;;;;9.20;7.10;;;;;;;21.22;56.74;100265.35;105816;1253;63811;-78
2023/06/23 01:36:37;;;;;;;10.90;6.90;;;;;;;21.19;56.88;100261.95;105826;1253;60406;-79
2023/06/23 01:39:06;;;;;;;9.00;7.40;;;;;;;21.15;56.89;100261.55;105811;1253;64045;-77
2023/06/23 01:41:44;;;;;;;8.50;6.80;;;;;;;21.17;56.94;100263.42;105788;1253;60336;-79
2023/06/23 01:44:14;;;;;;;10.10;7.10;;;;;;;21.13;57.05;100265.12;105729;1253;60444;-79
2023/06/23 01:46:51;;;;;;;9.80;7.10;;;;;;;21.08;57.16;100264.54;105899;1253;65279;-79
2023/06/23 01:49:23;;;;;;;9.90;7.30;;;;;;;21.06;57.22;100268.20;105756;1253;60594;-79
2023/06/23 01:51:51;;;;;;;10.00;7.10;;;;;;;21.09;57.22;100272.89;105581;1254;63945;-78
2023/06/23 01:54:18;;;;;;;8.70;7.20;;;;;;;21.05;57.23;100279.02;105795;1255;61150;-79
2023/06/23 01:56:45;;;;;;;12.40;7.50;;;;;;;21.02;57.38;100275.34;105707;1252;60432;-79
2023/06/23 01:59:11;;;;;;;13.40;7.20;;;;;;;21.02;57.48;100280.21;105716;1253;67201;-78
2023/06/23 02:01:39;;;;;;;9.90;7.10;;;;;;;21.01;57.56;100284.26;105723;1253;60486;-79
2023/06/23 02:04:06;;;;;;;12.10;7.30;;;;;;;20.97;57.60;100286.13;105813;1255;62523;-79
2023/06/23 02:06:34;;;;;;;10.70;7.80;;;;;;;20.97;57.66;100287.65;105658;1257;60426;-80
2023/06/23 02:09:06;;;;;;;9.30;7.40;;;;;;;20.97;57.70;100286.83;105920;1252;60447;-79
2023/06/23 02:11:35;;;;;;;10.50;7.40;;;;;;;20.93;57.94;100287.06;106046;1256;65009;-79
2023/06/23 02:14:02;;;;;;;9.40;7.70;;;;;;;20.93;57.94;100287.04;105708;1252;60537;-79
2023/06/23 02:16:31;;;;;;;12.60;8.10;;;;;;;20.93;57.94;100286.33;105899;1257;64200;-79
2023/06/23 02:18:58;;;;;;;10.40;8.00;;;;;;;20.90;57.96;100289.35;105815;1253;60416;-79
2023/06/23 02:21:25;;;;;;;11.00;8.60;;;;;;;20.88;58.08;100289.17;105719;1251;60523;-79
2023/06/23 02:23:52;;;;;;;10.90;8.00;;;;;;;20.85;58.19;100285.92;105908;1252;65088;-78
2023/06/23 02:26:18;;;;;;;9.30;8.20;;;;;;;20.82;58.24;100282.86;105820;1254;60496;-80
2023/06/23 02:28:49;;;;;;;8.80;7.40;;;;;;;20.84;58.18;100280.46;105866;1252;60472;-79
2023/06/23 02:31:23;;;;;;;10.80;8.00;;;;;;;20.81;58.33;100285.42;105558;1259;60346;-79
2023/06/23 02:33:50;;;;;;;;;;;;;;;20.76;58.42;100283.42;105890;1257;60774;-78
2023/06/23 02:36:21;;;;;;;11.10;8.10;;;;;;;20.73;58.55;100285.33;105784;1253;63748;-79
2023/06/23 02:38:54;;;;;;;11.00;8.20;;;;;;;20.73;58.57;100287.69;105708;1256;60424;-79
2023/06/23 02:41:22;;;;;;;12.80;8.00;;;;;;;20.70;58.68;100285.67;106055;1253;64025;-79
2023/06/23 02:43:51;;;;;;;8.80;7.80;;;;;;;20.71;58.69;100286.17;105874;1254;60458;-79
2023/06/23 02:46:25;;;;;;;11.70;8.30;;;;;;;20.71;58.77;100287.62;105972;1253;60621;-79
2023/06/23 02:48:54;;;;;;;13.20;7.80;;;;;;;20.70;58.85;100289.35;105904;1257;65086;-79
2023/06/23 02:51:21;;;;;;;11.10;8.10;;;;;;;20.71;58.91;100282.80;106054;1252;60527;-79
2023/06/23 02:54:04;;;;;;;10.40;7.90;;;;;;;20.71;58.94;100284.77;105870;1253;64012;-79
2023/06/23 02:56:30;;;;;;;17.40;8.20;;;;;;;20.71;59.06;100287.42;105639;1253;60511;-79
2023/06/23 02:59:01;;;;;;;10.60;8.40;;;;;;;20.71;59.23;100283.54;105979;1253;60426;-79
2023/06/23 03:01:28;;;;;;;10.40;9.00;;;;;;;20.71;59.22;100279.58;106019;1253;65247;-79
2023/06/23 03:03:56;;;;;;;15.50;8.80;;;;;;;20.73;59.11;100276.79;106128;1253;60885;-80
2023/06/23 03:06:23;;;;;;;9.20;8.10;;;;;;;20.73;59.17;100280.88;105820;1253;63811;-79
2023/06/23 03:08:50;;;;;;;10.80;8.50;;;;;;;20.72;59.26;100283.17;105763;1253;60433;-80
2023/06/23 03:11:18;;;;;;;15.80;9.10;;;;;;;20.71;59.34;100282.27;105757;1253;60454;-80
2023/06/23 03:13:47;;;;;;;12.60;8.70;;;;;;;20.74;59.34;100281.17;105980;1256;65173;-80
2023/06/23 03:16:19;;;;;;;12.40;8.70;;;;;;;20.72;59.49;100281.60;105764;1255;60397;-80
2023/06/23 03:18:53;;;;;;;11.40;9.50;;;;;;;20.72;59.42;100280.61;105723;1257;63729;-80
2023/06/23 03:21:20;;;;;;;10.00;8.70;;;;;;;20.76;59.40;100277.20;105837;1254;60537;-80
2023/06/23 03:23:50;;;;;;;11.10;9.20;;;;;;;20.75;59.62;100279.08;105784;1253;60535;-80
2023/06/23 03:26:17;;;;;;;11.70;9.10;;;;;;;20.75;59.74;100278.14;105771;1256;65203;-80
2023/06/23 03:28:46;;;;;;;9.80;8.70;;;;;;;20.78;59.78;100275.65;105577;1253;60534;-79
2023/06/23 03:31:15;;;;;;;9.80;8.60;;;;;;;20.81;59.68;100273.23;105986;1252;63721;-81
2023/06/23 03:33:43;;;;;;;10.40;9.10;;;;;;;20.84;59.79;100273.52;105562;1257;60437;-81
2023/06/23 03:36:17;;;;;;;12.50;9.30;;;;;;;20.90;59.76;100276.14;105747;1253;60537;-79
2023/06/23 03:38:47;;;;;;;11.70;8.90;;;;;;;20.91;59.74;100271.73;105724;1253;65064;-79
2023/06/23 03:41:14;;;;;;;12.10;8.90;;;;;;;20.93;60.00;100274.21;105761;1256;60409;-79
2023/06/23 03:43:52;;;;;;;12.10;8.80;;;;;;;20.96;59.97;100273.23;105642;1253;64624;-80
2023/06/23 03:46:43;;;;;;;12.00;8.60;;;;;;;21.03;59.92;100268.17;105928;1253;60406;-80
2023/06/23 03:49:10;;;;;;;12.70;9.00;;;;;;;21.08;60.02;100267.52;105888;1252;60475;-80
2023/06/23 03:51:37;;;;;;;15.00;9.50;;;;;;;21.12;60.05;100267.02;106004;1251;64898;-81
2023/06/23 03:54:03;;;;;;;12.30;8.70;;;;;;;21.20;60.10;100267.87;105750;1253;61583;-81
2023/06/23 03:56:30;;;;;;;11.70;8.70;;;;;;;21.25;60.15;100261.52;105732;1253;63772;-81
2023/06/23 03:58:58;;;;;;;13.40;8.90;;;;;;;21.30;60.20;100258.23;105965;1253;60436;-81
2023/06/23 04:01:25;;;;;;;10.20;9.10;;;;;;;21.37;60.08;100258.82;106015;1253;60348;-81
2023/06/23 04:03:51;;;;;;;14.80;8.60;;;;;;;21.42;60.08;100257.17;105935;1259;63869;-81
2023/06/23 04:06:18;;;;;;;10.70;8.80;;;;;;;21.50;60.12;100259.42;105858;1253;60420;-80
2023/06/23 04:08:48;;;;;;;13.00;8.50;;;;;;;21.59;60.14;100257.71;105896;1253;64773;-80
2023/06/23 04:11:14;;;;;;;11.60;9.20;;;;;;;21.72;60.02;100259.63;106036;1252;60643;-80
2023/06/23 04:13:43;;;;;;;13.80;8.70;;;;;;;21.80;59.99;100260.45;105905;1253;60537;-80
2023/06/23 04:16:11;;;;;;;11.30;8.50;;;;;;;21.89;59.98;100260.00;105913;1257;65015;-80
2023/06/23 04:18:37;;;;;;;10.30;8.40;;;;;;;21.98;59.81;100256.83;105834;1253;60498;-80
2023/06/23 04:21:04;;;;;;;11.50;8.00;;;;;;;22.08;59.42;100256.45;105755;1253;63671;-80
2023/06/23 04:23:33;;;;;;;13.10;8.30;;;;;;;22.18;59.05;100257.70;105698;1253;60337;-79
2023/06/23 04:26:02;;;;;;;12.30;8.70;;;;;;;22.27;58.91;100258.11;105843;1253;60527;-79
2023/06/23 04:28:28;;;;;;;10.10;8.50;;;;;;;22.40;58.55;100254.57;105657;1258;65187;-80
2023/06/23 04:30:55;;;;;;;9.90;8.80;;;;;;;22.48;58.47;100257.23;105849;1254;60415;-79
2023/06/23 04:33:22;;;;;;;10.70;8.50;;;;;;;22.54;58.41;100256.60;105937;1253;63805;-79
2023/06/23 04:35:49;;;;;;;11.80;8.10;;;;;;;22.62;58.39;100256.62;105886;1257;60509;-80
2023/06/23 04:38:16;;;;;;;9.80;8.30;;;;;;;22.70;58.28;100255.02;106106;1253;60419;-80
2023/06/23 04:40:48;;;;;;;8.70;7.80;;;;;;;22.82;58.03;100255.98;105896;1253;64108;-80
2023/06/23 04:43:17;;;;;;;12.10;8.00;;;;;;;22.89;57.65;100255.60;105875;1255;60536;-79
2023/06/23 04:45:54;;;;;;;11.80;8.00;;;;;;;22.94;57.40;100254.39;106024;1256;64148;-79
2023/06/23 04:48:24;;;;;;;11.30;8.00;;;;;;;23.05;57.06;100252.91;105839;1252;60463;-80
2023/06/23 04:50:52;;;;;;;13.10;8.60;;;;;;;23.13;56.65;100247.04;105947;1254;60432;-80
2023/06/23 04:53:21;;;;;;;11.20;8.40;;;;;;;23.19;56.69;100249.02;105944;1253;65185;-81
2023/06/23 04:55:50;;;;;;;9.60;8.50;;;;;;;23.28;56.58;100247.29;105967;1257;60492;-80
2023/06/23 04:58:17;;;;;;;13.10;8.50;;;;;;;23.37;56.30;100249.40;105795;1254;62429;-80
2023/06/23 05:00:44;;;;;;;9.70;7.90;;;;;;;23.49;56.46;100248.27;105717;1252;60607;-80
2023/06/23 05:03:10;;;;;;;14.40;8.40;;;;;;;23.61;56.27;100247.66;105923;1253;60743;-80
2023/06/23 05:05:37;;;;;;;12.00;8.40;;;;;;;23.70;56.08;100244.71;106030;1253;65834;-80
2023/06/23 05:08:04;;;;;;;12.10;8.80;;;;;;;23.82;55.82;100245.30;105875;1257;60438;-80
2023/06/23 05:10:31;;;;;;;12.10;9.00;;;;;;;23.93;55.31;100247.52;105681;1253;63915;-81
2023/06/23 05:12:58;;;;;;;10.50;8.50;;;;;;;24.00;55.13;100248.15;105867;1252;59339;-80
2023/06/23 05:15:25;;;;;;;13.10;9.30;;;;;;;24.11;54.93;100251.29;105915;1253;60437;-80
2023/06/23 05:17:54;;;;;;;10.70;8.60;;;;;;;24.17;54.69;100256.61;105857;1257;65070;-80
2023/06/23 05:20:22;;;;;;;11.10;8.80;;;;;;;24.27;54.71;100253.13;105993;1253;60297;-80
2023/06/23 05:22:50;;;;;;;11.40;8.50;;;;;;;24.37;54.46;100255.53;105925;1253;63894;-80
2023/06/23 05:25:18;;;;;;;10.60;9.20;;;;;;;24.44;54.43;100255.86;106032;1253;60459;-80
2023/06/23 05:27:49;;;;;;;11.50;9.10;;;;;;;24.53;54.12;100258.60;105690;1253;60555;-79
2023/06/23 05:30:17;;;;;;;12.00;8.80;;;;;;;24.63;54.00;100260.67;105736;1258;65244;-79
2023/06/23 05:32:47;;;;;;;11.20;9.00;;;;;;;24.70;54.05;100258.42;106402;1252;60439;-84
2023/06/23 05:35:14;;;;;;;11.30;8.50;;;;;;;24.76;54.01;100258.80;105766;1253;63808;-80
2023/06/23 05:37:41;;;;;;;13.80;8.80;;;;;;;24.84;53.86;100259.08;105868;1253;60513;-85
2023/06/23 05:40:09;;;;;;;13.10;9.40;;;;;;;24.90;53.81;100260.45;105679;1253;60439;-82
2023/06/23 05:42:36;;;;;;;15.80;8.70;;;;;;;24.98;53.82;100260.61;105705;1260;65161;-84
2023/06/23 05:45:04;;;;;;;12.50;8.70;;;;;;;25.08;53.73;100259.27;105835;1253;60946;-84
2023/06/23 05:47:34;;;;;;;9.70;8.70;;;;;;;25.17;53.72;100258.42;105869;1253;64067;-81
2023/06/23 05:50:01;;;;;;;9.30;8.30;;;;;;;25.30;53.45;100252.12;105905;1255;60324;-81
2023/06/23 05:52:30;;;;;;;10.90;8.50;;;;;;;25.38;53.31;100245.23;106096;1259;60397;-82
2023/06/23 05:54:57;;;;;;;12.40;9.00;;;;;;;25.49;53.06;100244.38;105710;1253;63962;-82
2023/06/23 05:57:27;;;;;;;9.70;8.60;;;;;;;25.62;52.88;100241.42;106018;1253;60544;-81
2023/06/23 06:00:10;;;;;;;9.20;8.20;;;;;;;25.69;52.73;100236.33;105975;1253;63757;-79
2023/06/23 06:02:43;;;;;;;10.30;7.60;;;;;;;25.81;52.48;100231.72;106403;1253;60363;-81
2023/06/23 06:05:11;;;;;;;16.30;8.40;;;;;;;25.93;52.23;100225.84;105792;1252;60451;-81
2023/06/23 06:07:38;;;;;;;9.30;8.30;;;;;;;26.07;52.14;100225.39;105901;1252;63773;-79
2023/06/23 06:10:07;;;;;;;14.60;8.50;;;;;;;26.19;51.98;100226.38;106172;1257;60508;-82
2023/06/23 06:12:34;;;;;;;10.90;8.30;;;;;;;26.27;51.81;100221.89;105917;1253;62561;-81
2023/06/23 06:15:02;;;;;;;9.80;8.30;;;;;;;26.37;51.84;100220.16;105940;1253;60527;-81
2023/06/23 06:17:29;;;;;;;10.50;7.90;;;;;;;26.47;51.88;100227.08;106556;1255;60430;-78
2023/06/23 06:19:58;;;;;;;10.90;7.80;;;;;;;26.57;51.57;100223.72;106805;1253;63750;-78
2023/06/23 06:22:25;;;;;;;11.40;8.00;;;;;;;26.72;50.96;100223.88;106545;1253;60419;-77
2023/06/23 06:24:52;;;;;;;14.90;8.10;;;;;;;26.82;50.30;100219.39;106307;1253;62526;-76
2023/06/23 06:27:19;;;;;;;12.60;7.50;;;;;;;26.91;50.27;100218.52;106274;1256;60340;-80
2023/06/23 06:29:46;;;;;;;12.30;7.50;;;;;;;27.01;49.90;100213.43;106726;1251;60483;-82
2023/06/23 06:32:12;;;;;;;8.70;7.40;;;;;;;27.13;49.86;100212.60;106481;1253;64012;-78
2023/06/23 06:34:40;;;;;;;10.20;7.50;;;;;;;27.27;49.64;100214.98;106419;1252;60287;-78
2023/06/23 06:37:06;;;;;;;9.30;7.20;;;;;;;27.41;49.69;100215.70;106855;1253;64116;-76
2023/06/23 06:39:34;;;;;;;12.10;7.60;;;;;;;27.53;49.06;100212.73;105963;1256;60551;-72
2023/06/23 06:42:01;;;;;;;11.30;6.80;;;;;;;27.62;48.85;100209.46;105913;1253;60444;-74
2023/06/23 06:44:28;;;;;;;13.20;7.40;;;;;;;27.71;48.68;100209.14;106105;1253;65246;-72
2023/06/23 06:46:55;;;;;;;11.10;6.90;;;;;;;27.80;48.45;100205.48;106041;1259;60451;-72
2023/06/23 06:49:23;;;;;;;10.30;7.40;;;;;;;27.86;48.28;100206.80;106218;1253;63992;-79
2023/06/23 06:51:50;;;;;;;8.10;7.10;;;;;;;27.98;48.47;100210.59;106313;1253;60480;-78
2023/06/23 06:54:17;;;;;;;11.50;7.30;;;;;;;28.10;48.19;100212.02;106396;1262;61013;-78
2023/06/23 06:56:46;;;;;;;8.60;7.30;;;;;;;28.19;47.61;100209.76;106275;1254;65192;-79
2023/06/23 06:59:13;;;;;;;9.90;6.80;;;;;;;28.28;47.19;100206.41;106589;1253;60539;-79
2023/06/23 07:01:40;;;;;;;11.50;7.30;;;;;;;28.38;47.08;100204.84;106117;1253;64068;-74
2023/06/23 07:04:07;;;;;;;15.00;7.20;;;;;;;28.51;47.18;100201.91;105982;1253;60594;-76
2023/06/23 07:06:36;;;;;;;9.00;7.10;;;;;;;28.64;47.16;100199.77;106562;1255;61037;-79
2023/06/23 07:09:04;;;;;;;11.40;7.10;;;;;;;28.78;46.59;100200.98;106538;1253;65323;-79
2023/06/23 07:11:31;;;;;;;11.50;6.70;;;;;;;28.88;46.44;100199.77;106708;1253;60530;-77
2023/06/23 07:13:59;;;;;;;10.90;7.00;;;;;;;28.98;46.27;100198.11;105920;1254;64003;-78
2023/06/23 07:16:33;;;;;;;15.20;11.80;;;;;;;29.08;45.84;100195.15;106215;1254;60547;-78
2023/06/23 07:19:00;;;;;;;11.00;8.00;;;;;;;29.15;45.40;100197.78;106052;1253;60415;-77
2023/06/23 07:21:27;;;;;;;13.30;9.90;;;;;;;29.23;45.30;100195.01;105966;1253;63730;-75
2023/06/23 07:23:53;;;;;;;13.50;8.70;;;;;;;29.33;45.23;100193.32;106025;1254;60502;-76
2023/06/23 07:26:20;;;;;;;9.70;7.10;;;;;;;29.45;44.84;100187.17;106206;1253;64588;-78
2023/06/23 07:28:47;;;;;;;8.40;6.60;;;;;;;29.56;44.73;100183.38;106241;1253;60419;-77
2023/06/23 07:31:13;;;;;;;9.60;6.90;;;;;;;29.69;44.41;100175.05;106326;1253;59811;-81
2023/06/23 07:33:43;;;;;;;7.70;6.60;;;;;;;29.77;44.17;100175.49;106601;1256;65701;-78
2023/06/23 07:36:10;;;;;;;8.20;6.50;;;;;;;29.91;44.11;100177.79;106029;1253;60528;-75
2023/06/23 07:38:36;;;;;;;8.50;6.30;;;;;;;30.08;43.41;100178.17;106102;1255;64120;-77
2023/06/23 07:41:04;;;;;;;10.30;6.60;;;;;;;30.21;43.36;100176.96;106095;1258;60388;-75
2023/06/23 07:43:32;;;;;;;10.70;6.60;;;;;;;30.35;42.91;100179.57;106473;1253;60437;-76
2023/06/23 07:45:58;;;;;;;9.50;6.40;;;;;;;30.44;42.59;100179.17;106267;1256;65102;-78
2023/06/23 07:48:27;;;;;;;7.70;6.90;;;;;;;30.53;41.94;100182.31;105867;1253;60514;-73
2023/06/23 07:50:53;;;;;;;6.60;5.90;;;;;;;30.60;41.56;100183.21;105884;1253;64006;-76
2023/06/23 07:53:20;;;;;;;8.00;6.40;;;;;;;30.66;40.94;100179.77;106099;1253;60483;-78
2023/06/23 07:55:47;;;;;;;9.50;6.60;;;;;;;30.71;40.92;100178.64;107538;1253;60440;-78
2023/06/23 07:58:14;;;;;;;7.80;6.10;;;;;;;30.80;41.09;100174.84;106023;1253;64994;-76
2023/06/23 08:00:41;;;;;;;12.70;6.40;;;;;;;30.93;40.97;100170.73;105941;1256;60454;-77
2023/06/23 08:03:07;;;;;;;12.30;6.40;;;;;;;31.02;40.36;100173.10;105896;1252;64196;-78
2023/06/23 08:05:36;;;;;;;13.10;6.50;;;;;;;31.11;40.39;100164.06;105957;1256;60320;-77
2023/06/23 08:08:03;;;;;;;9.10;5.90;;;;;;;31.22;40.43;100160.34;105951;1256;60437;-78
2023/06/23 08:10:29;;;;;;;7.30;5.60;;;;;;;31.34;39.69;100162.33;105915;1255;65182;-78
2023/06/23 08:12:58;;;;;;;6.60;6.00;;;;;;;31.50;38.85;100163.24;106024;1254;60421;-79
2023/06/23 08:15:25;;;;;;;10.30;6.30;;;;;;;31.60;38.61;100158.70;105530;1253;229170;-79
2023/06/23 08:17:52;;;;;;;9.30;6.40;;;;;;;31.72;38.24;100158.56;105933;1256;60473;-79
2023/06/23 08:20:19;;;;;;;7.30;5.80;;;;;;;31.82;37.31;100150.42;105801;1253;60453;-81
2023/06/23 08:22:46;;;;;;;15.20;6.90;;;;;;;31.90;37.03;100145.27;105812;1253;65103;-79
2023/06/23 08:25:14;;;;;;;10.80;6.20;;;;;;;31.97;37.07;100145.83;105803;1253;60486;-78
2023/06/23 08:27:41;;;;;;;7.90;6.00;;;;;;;32.11;37.24;100145.27;105764;1253;64082;-77
2023/06/23 08:30:08;;;;;;;8.50;5.70;;;;;;;32.34;36.77;100147.47;105866;1258;60467;-78
2023/06/23 08:32:35;;;;;;;7.40;6.00;;;;;;;32.60;36.20;100152.97;105741;1252;60685;-78
2023/06/23 08:35:02;;;;;;;9.10;5.50;;;;;;;32.69;35.40;100153.90;105570;1259;64893;-79
2023/06/23 08:37:30;;;;;;;9.40;6.60;;;;;;;32.65;35.36;100154.95;105897;1253;60492;-80
2023/06/23 08:39:59;;;;;;;9.50;5.80;;;;;;;32.58;35.70;100153.23;105925;1253;73895;-79
2023/06/23 08:42:26;;;;;;;13.40;5.70;;;;;;;32.57;35.66;100153.73;105873;1255;60335;-79
2023/06/23 08:44:53;;;;;;;12.00;6.40;;;;;;;32.45;35.41;100148.54;105898;1253;60700;-78
2023/06/23 08:47:20;;;;;;;13.20;6.50;;;;;;;32.31;35.60;100147.30;105890;1256;65244;-85
2023/06/23 08:49:46;;;;;;;10.40;6.60;;;;;;;32.18;34.98;100148.35;105712;1259;60416;-78
2023/06/23 08:52:14;;;;;;;6.90;6.20;;;;;;;32.00;34.88;100141.58;105710;1253;63819;-79
2023/06/23 08:54:41;;;;;;;7.80;6.10;;;;;;;31.85;34.57;100137.27;105888;1259;60422;-79
2023/06/23 08:57:07;;;;;;;6.80;6.10;;;;;;;31.78;34.92;100129.39;105756;1258;60512;-79
2023/06/23 08:59:34;;;;;;;11.50;6.30;;;;;;;31.70;34.89;100124.85;105866;1254;65362;-81
2023/06/23 09:02:01;;;;;;;7.00;6.40;;;;;;;31.65;35.09;100121.21;105764;1256;60329;-80
2023/06/23 09:04:28;;;;;;;9.00;5.80;;;;;;;31.63;35.16;100115.86;105838;1253;64064;-80
2023/06/23 09:06:55;;;;;;;7.50;5.90;;;;;;;31.77;35.00;100110.80;105672;1252;60409;-79
2023/06/23 09:09:24;;;;;;;12.70;6.30;;;;;;;31.98;34.45;100103.49;105691;1254;60445;-78
2023/06/23 09:11:51;;;;;;;9.30;6.10;;;;;;;32.16;34.01;100106.10;105581;1259;64957;-77
2023/06/23 09:14:17;;;;;;;7.60;6.10;;;;;;;32.31;33.55;100112.31;105639;1254;61005;-76
2023/06/23 09:16:45;;;;;;;6.90;6.20;;;;;;;32.50;33.07;100111.18;105732;1255;64048;-77
2023/06/23 09:19:12;;;;;;;9.60;6.20;;;;;;;32.68;33.09;100112.00;105745;1260;60429;-77
2023/06/23 09:21:40;;;;;;;6.80;6.20;;;;;;;32.86;33.52;100108.52;105694;1257;60552;-77
2023/06/23 09:24:07;;;;;;;6.40;5.80;;;;;;;33.09;32.89;100108.32;105818;1254;65200;-76
2023/06/23 09:26:54;;;;;;;6.80;5.90;;;;;;;33.24;32.40;100101.71;105946;1254;60428;-79
2023/06/23 09:29:22;;;;;;;9.30;6.10;;;;;;;33.35;32.02;100095.13;105639;1253;64016;-78
2023/06/23 09:31:50;;;;;;;7.60;6.30;;;;;;;33.47;31.89;100100.46;105683;1251;60437;-77
2023/06/23 09:34:27;;;;;;;8.00;6.10;;;;;;;33.62;31.78;100095.03;105785;1255;60537;-78
2023/06/23 09:37:11;;;;;;;6.90;6.20;;;;;;;33.80;31.60;100091.98;105628;1252;65067;-78
2023/06/23 09:39:39;;;;;;;7.60;5.90;;;;;;;33.92;31.05;100096.83;105757;1254;60489;-76
2023/06/23 09:42:10;;;;;;;8.60;6.10;;;;;;;33.89;31.46;100088.79;105828;1256;63691;-77
2023/06/23 09:44:38;;;;;;;7.10;5.90;;;;;;;34.00;32.00;100088.51;105994;1253;60758;-76
2023/06/23 09:47:06;;;;;;;7.00;5.60;;;;;;;34.15;31.21;100084.90;105978;1254;60537;-78
2023/06/23 09:49:38;;;;;;;11.70;5.80;;;;;;;34.15;30.93;100086.54;105803;1254;65056;-80
2023/06/23 09:52:06;;;;;;;7.50;6.20;;;;;;;34.02;31.22;100085.20;105685;1256;61198;-80
2023/06/23 09:54:36;;;;;;;9.90;6.50;;;;;;;33.90;31.00;100076.34;105607;1253;63983;-78
2023/06/23 09:57:07;;;;;;;7.00;6.30;;;;;;;33.77;31.15;100076.92;105831;1255;60372;-78
2023/06/23 09:59:38;;;;;;;13.40;5.80;;;;;;;33.80;31.80;100079.00;105810;1253;60516;-77
2023/06/23 10:02:06;;;;;;;8.70;5.80;;;;;;;33.99;30.10;100083.58;105833;1255;63749;-77
2023/06/23 10:04:33;;;;;;;8.50;6.30;;;;;;;34.05;29.89;100074.26;105812;1253;60497;-77
2023/06/23 10:07:17;;;;;;;5.80;5.20;;;;;;;34.10;29.95;100078.30;105775;1253;63868;-76
2023/06/23 10:09:51;;;;;;;6.10;4.80;;;;;;;34.13;28.58;100078.38;105774;1253;60412;-77
2023/06/23 10:12:22;;;;;;;13.80;4.80;;;;;;;34.06;27.40;100078.38;106059;1251;60447;-76
2023/06/23 10:14:49;;;;;;;6.00;4.60;;;;;;;34.02;27.67;100077.30;106059;1258;64075;-76
2023/06/23 10:17:16;;;;;;;6.70;4.70;;;;;;;34.08;27.90;100063.89;105791;1256;60485;-76
2023/06/23 10:19:46;;;;;;;6.40;4.80;;;;;;;34.27;28.06;100067.75;105615;1264;64022;-75
2023/06/23 10:22:14;;;;;;;5.90;5.30;;;;;;;34.43;27.14;100066.21;105653;1258;60438;-74
2023/06/23 10:24:49;;;;;;;8.00;5.80;;;;;;;34.37;27.92;100071.41;105698;1253;60448;-77
2023/06/23 10:27:21;;;;;;;6.20;5.60;;;;;;;34.28;28.57;100074.60;105744;1253;65054;-77
2023/06/23 10:29:52;;;;;;;28.10;6.00;;;;;;;34.22;29.06;100073.39;105671;1258;60429;-77
2023/06/23 10:32:23;;;;;;;25.90;6.10;;;;;;;34.23;29.20;100066.35;105766;1256;63688;-79
2023/06/23 10:34:51;;;;;;;10.80;5.30;;;;;;;34.40;29.19;100073.91;105695;1256;60429;-78
2023/06/23 10:37:22;;;;;;;16.50;5.20;;;;;;;34.69;27.91;100075.04;105652;1253;60533;-78
2023/06/23 10:40:10;;;;;;;7.60;5.20;;;;;;;34.98;27.51;100069.17;105817;1254;65091;-77
2023/06/23 10:42:38;;;;;;;6.80;5.20;;;;;;;35.13;27.04;100065.89;105768;1254;60423;-77
2023/06/23 10:45:06;;;;;;;6.10;5.00;;;;;;;35.26;26.59;100062.33;105670;1259;63818;-82
2023/06/23 10:47:32;;;;;;;11.80;5.30;;;;;;;35.38;26.60;100056.59;105765;1257;60433;-79
2023/06/23 10:49:59;;;;;;;7.10;4.80;;;;;;;35.46;26.59;100059.96;105765;1259;60429;-78
2023/06/23 10:52:26;;;;;;;5.80;5.00;;;;;;;35.52;26.87;100055.33;105567;1259;65221;-74
2023/06/23 10:54:53;;;;;;;8.20;5.10;;;;;;;35.62;26.85;100055.25;105708;1257;60409;-75
2023/06/23 10:57:20;;;;;;;7.10;5.30;;;;;;;35.63;26.61;100055.85;105774;1259;64061;-76
2023/06/23 11:00:04;;;;;;;6.60;5.10;;;;;;;35.60;26.57;100056.64;105822;1257;60379;-76
2023/06/23 11:02:52;;;;;;;6.40;5.10;;;;;;;35.52;25.85;100059.02;105925;1257;60457;-75
2023/06/23 11:05:19;;;;;;;6.00;5.50;;;;;;;35.31;26.88;100066.45;105768;1257;65152;-76
2023/06/23 11:08:00;;;;;;;8.10;5.40;;;;;;;35.20;27.78;100066.90;106629;1257;60276;-76
2023/06/23 11:10:46;;;;;;;8.10;5.60;;;;;;;35.15;28.36;100065.10;106422;1258;64050;-77
2023/06/23 11:13:13;;;;;;;7.90;5.90;;;;;;;35.04;28.36;100065.05;106285;1257;60454;-75
2023/06/23 11:15:41;;;;;;;6.80;5.40;;;;;;;34.85;28.35;100064.64;106286;1254;60467;-79
2023/06/23 11:18:08;;;;;;;6.80;5.80;;;;;;;34.68;28.97;100071.11;106483;1259;65239;-76
2023/06/23 11:20:39;;;;;;;6.30;5.50;;;;;;;34.62;28.94;100075.44;105968;1259;60496;-75
2023/06/23 11:23:12;;;;;;;8.20;5.80;;;;;;;34.60;29.02;100077.04;106502;1254;63751;-79